Webcam Flughafen St.Gallen-Altenrhein

Live-Bilder und Zeitraffer LSZR / ACH.

 

Live aus Altenrhein
LIVE
LSZR 041120Z 06004KT 9999 SCT090 10/04 Q1021 NOSIG RMK G
Zeitraffer heute
2021-03-04 00:14:24
LSZR 032250Z AUTO 19002KT CAVOK 02/02 Q1026